sensor_id;sensor_type;location;lat;lon;timestamp;P1;durP1;ratioP1;P2;durP2;ratioP2
55314;SDS011;41619;42.816;23.226;2022-09-09T00:00:53;22.42;;;15.68;;
55314;SDS011;41619;42.816;23.226;2022-09-09T00:03:56;20.17;;;15.02;;
55314;SDS011;41619;42.816;23.226;2022-09-09T00:06:31;23.75;;;14.75;;
55314;SDS011;41619;42.816;23.226;2022-09-09T00:09:12;18.85;;;14.80;;
55314;SDS011;41619;42.816;23.226;2022-09-09T00:11:43;21.30;;;15.05;;
55314;SDS011;41619;42.816;23.226;2022-09-09T00:14:18;23.63;;;15.70;;
55314;SDS011;41619;42.816;23.226;2022-09-09T00:16:47;25.58;;;15.55;;
55314;SDS011;41619;42.816;23.226;2022-09-09T00:21:47;26.25;;;17.13;;
55314;SDS011;41619;42.816;23.226;2022-09-09T00:27:08;20.95;;;15.25;;
55314;SDS011;41619;42.816;23.226;2022-09-09T00:32:17;21.20;;;15.20;;
55314;SDS011;41619;42.816;23.226;2022-09-09T00:37:35;20.02;;;13.68;;
55314;SDS011;41619;42.816;23.226;2022-09-09T00:40:01;21.17;;;14.73;;
55314;SDS011;41619;42.816;23.226;2022-09-09T00:42:42;21.52;;;14.60;;
55314;SDS011;41619;42.816;23.226;2022-09-09T00:45:18;18.35;;;15.18;;
55314;SDS011;41619;42.816;23.226;2022-09-09T00:47:53;23.08;;;15.90;;
55314;SDS011;41619;42.816;23.226;2022-09-09T00:56:24;20.23;;;16.25;;
55314;SDS011;41619;42.816;23.226;2022-09-09T01:02:13;21.85;;;15.20;;
55314;SDS011;41619;42.816;23.226;2022-09-09T01:04:47;23.83;;;15.02;;
55314;SDS011;41619;42.816;23.226;2022-09-09T01:07:17;21.42;;;15.13;;
55314;SDS011;41619;42.816;23.226;2022-09-09T01:09:57;24.60;;;14.52;;
55314;SDS011;41619;42.816;23.226;2022-09-09T01:12:25;27.95;;;18.23;;
55314;SDS011;41619;42.816;23.226;2022-09-09T01:14:56;31.77;;;20.65;;
55314;SDS011;41619;42.816;23.226;2022-09-09T01:17:30;38.20;;;21.13;;
55314;SDS011;41619;42.816;23.226;2022-09-09T01:23:04;34.65;;;19.75;;
55314;SDS011;41619;42.816;23.226;2022-09-09T01:28:42;39.50;;;20.40;;
55314;SDS011;41619;42.816;23.226;2022-09-09T01:31:02;35.33;;;19.83;;
55314;SDS011;41619;42.816;23.226;2022-09-09T01:33:29;33.92;;;19.98;;
55314;SDS011;41619;42.816;23.226;2022-09-09T01:38:26;27.58;;;19.13;;
55314;SDS011;41619;42.816;23.226;2022-09-09T01:40:54;26.42;;;18.13;;
55314;SDS011;41619;42.816;23.226;2022-09-09T01:43:22;35.83;;;19.42;;
55314;SDS011;41619;42.816;23.226;2022-09-09T01:45:51;44.22;;;24.85;;
55314;SDS011;41619;42.816;23.226;2022-09-09T01:48:19;41.20;;;23.83;;
55314;SDS011;41619;42.816;23.226;2022-09-09T01:50:47;31.25;;;22.20;;
55314;SDS011;41619;42.816;23.226;2022-09-09T01:53:12;28.70;;;19.30;;
55314;SDS011;41619;42.816;23.226;2022-09-09T02:03:29;24.02;;;16.52;;
55314;SDS011;41619;42.816;23.226;2022-09-09T02:08:48;28.20;;;14.98;;
55314;SDS011;41619;42.816;23.226;2022-09-09T02:11:15;20.80;;;14.82;;
55314;SDS011;41619;42.816;23.226;2022-09-09T02:13:43;20.20;;;14.60;;
55314;SDS011;41619;42.816;23.226;2022-09-09T02:21:42;24.63;;;17.33;;
55314;SDS011;41619;42.816;23.226;2022-09-09T02:24:11;27.63;;;17.45;;
55314;SDS011;41619;42.816;23.226;2022-09-09T02:26:40;26.88;;;17.83;;
55314;SDS011;41619;42.816;23.226;2022-09-09T02:29:09;20.58;;;16.23;;
55314;SDS011;41619;42.816;23.226;2022-09-09T02:31:39;19.40;;;15.88;;
55314;SDS011;41619;42.816;23.226;2022-09-09T02:34:09;23.83;;;16.38;;
55314;SDS011;41619;42.816;23.226;2022-09-09T02:36:37;24.95;;;16.65;;
55314;SDS011;41619;42.816;23.226;2022-09-09T02:39:05;26.10;;;17.55;;
55314;SDS011;41619;42.816;23.226;2022-09-09T02:41:33;25.43;;;18.60;;
55314;SDS011;41619;42.816;23.226;2022-09-09T02:44:00;31.40;;;19.17;;
55314;SDS011;41619;42.816;23.226;2022-09-09T02:49:03;32.97;;;18.83;;
55314;SDS011;41619;42.816;23.226;2022-09-09T02:54:23;31.45;;;17.75;;
55314;SDS011;41619;42.816;23.226;2022-09-09T02:59:37;29.92;;;19.00;;
55314;SDS011;41619;42.816;23.226;2022-09-09T03:02:03;27.27;;;17.48;;
55314;SDS011;41619;42.816;23.226;2022-09-09T03:04:29;26.70;;;17.00;;
55314;SDS011;41619;42.816;23.226;2022-09-09T03:06:56;27.55;;;16.33;;
55314;SDS011;41619;42.816;23.226;2022-09-09T03:09:22;27.98;;;18.48;;
55314;SDS011;41619;42.816;23.226;2022-09-09T03:11:47;26.27;;;18.95;;
55314;SDS011;41619;42.816;23.226;2022-09-09T03:14:14;32.22;;;19.02;;
55314;SDS011;41619;42.816;23.226;2022-09-09T03:16:40;25.55;;;18.05;;
55314;SDS011;41619;42.816;23.226;2022-09-09T03:19:07;24.15;;;17.02;;
55314;SDS011;41619;42.816;23.226;2022-09-09T03:21:34;26.33;;;17.33;;
55314;SDS011;41619;42.816;23.226;2022-09-09T03:24:00;29.05;;;17.67;;
55314;SDS011;41619;42.816;23.226;2022-09-09T03:26:28;19.63;;;17.00;;
55314;SDS011;41619;42.816;23.226;2022-09-09T03:28:55;24.15;;;18.05;;
55314;SDS011;41619;42.816;23.226;2022-09-09T03:31:20;31.33;;;17.60;;
55314;SDS011;41619;42.816;23.226;2022-09-09T03:33:46;28.30;;;18.00;;
55314;SDS011;41619;42.816;23.226;2022-09-09T03:36:11;25.67;;;18.60;;
55314;SDS011;41619;42.816;23.226;2022-09-09T03:38:37;26.83;;;18.63;;
55314;SDS011;41619;42.816;23.226;2022-09-09T03:41:02;23.75;;;17.90;;
55314;SDS011;41619;42.816;23.226;2022-09-09T03:43:31;20.42;;;16.60;;
55314;SDS011;41619;42.816;23.226;2022-09-09T03:45:57;22.25;;;17.20;;
55314;SDS011;41619;42.816;23.226;2022-09-09T03:48:23;20.48;;;17.08;;
55314;SDS011;41619;42.816;23.226;2022-09-09T03:50:52;27.13;;;17.55;;
55314;SDS011;41619;42.816;23.226;2022-09-09T03:53:20;26.50;;;17.85;;
55314;SDS011;41619;42.816;23.226;2022-09-09T03:55:48;26.80;;;18.02;;
55314;SDS011;41619;42.816;23.226;2022-09-09T03:58:17;22.42;;;17.98;;
55314;SDS011;41619;42.816;23.226;2022-09-09T04:03:19;27.90;;;18.30;;
55314;SDS011;41619;42.816;23.226;2022-09-09T04:05:44;24.65;;;17.90;;
55314;SDS011;41619;42.816;23.226;2022-09-09T04:08:09;29.85;;;18.33;;
55314;SDS011;41619;42.816;23.226;2022-09-09T04:10:36;27.30;;;17.55;;
55314;SDS011;41619;42.816;23.226;2022-09-09T04:13:02;25.48;;;16.95;;
55314;SDS011;41619;42.816;23.226;2022-09-09T04:15:29;28.08;;;17.58;;
55314;SDS011;41619;42.816;23.226;2022-09-09T04:17:55;28.95;;;18.13;;
55314;SDS011;41619;42.816;23.226;2022-09-09T04:20:20;23.50;;;17.17;;
55314;SDS011;41619;42.816;23.226;2022-09-09T04:22:47;22.73;;;17.30;;
55314;SDS011;41619;42.816;23.226;2022-09-09T04:25:12;30.40;;;18.52;;
55314;SDS011;41619;42.816;23.226;2022-09-09T04:27:37;28.27;;;19.02;;
55314;SDS011;41619;42.816;23.226;2022-09-09T04:30:03;33.63;;;18.90;;
55314;SDS011;41619;42.816;23.226;2022-09-09T04:32:29;35.45;;;18.88;;
55314;SDS011;41619;42.816;23.226;2022-09-09T04:34:54;34.05;;;19.20;;
55314;SDS011;41619;42.816;23.226;2022-09-09T04:37:20;24.45;;;18.02;;
55314;SDS011;41619;42.816;23.226;2022-09-09T04:39:45;28.27;;;17.45;;
55314;SDS011;41619;42.816;23.226;2022-09-09T04:42:11;23.20;;;18.27;;
55314;SDS011;41619;42.816;23.226;2022-09-09T04:44:36;22.95;;;18.48;;
55314;SDS011;41619;42.816;23.226;2022-09-09T04:47:01;20.45;;;16.95;;
55314;SDS011;41619;42.816;23.226;2022-09-09T04:49:27;28.50;;;16.95;;
55314;SDS011;41619;42.816;23.226;2022-09-09T04:51:52;36.25;;;16.80;;
55314;SDS011;41619;42.816;23.226;2022-09-09T04:54:18;24.20;;;17.13;;
55314;SDS011;41619;42.816;23.226;2022-09-09T04:56:43;24.05;;;16.67;;
55314;SDS011;41619;42.816;23.226;2022-09-09T04:59:09;23.00;;;16.00;;
55314;SDS011;41619;42.816;23.226;2022-09-09T05:01:35;20.98;;;16.60;;
55314;SDS011;41619;42.816;23.226;2022-09-09T05:04:01;21.05;;;15.27;;
55314;SDS011;41619;42.816;23.226;2022-09-09T05:06:27;24.77;;;16.05;;
55314;SDS011;41619;42.816;23.226;2022-09-09T05:08:56;32.42;;;16.60;;
55314;SDS011;41619;42.816;23.226;2022-09-09T05:11:27;24.05;;;16.40;;
55314;SDS011;41619;42.816;23.226;2022-09-09T05:13:53;20.52;;;14.88;;
55314;SDS011;41619;42.816;23.226;2022-09-09T05:16:19;31.90;;;16.45;;
55314;SDS011;41619;42.816;23.226;2022-09-09T05:18:46;21.80;;;16.20;;
55314;SDS011;41619;42.816;23.226;2022-09-09T05:21:12;20.30;;;14.93;;
55314;SDS011;41619;42.816;23.226;2022-09-09T05:23:39;23.02;;;16.42;;
55314;SDS011;41619;42.816;23.226;2022-09-09T05:26:05;20.33;;;15.98;;
55314;SDS011;41619;42.816;23.226;2022-09-09T05:28:33;24.75;;;15.63;;
55314;SDS011;41619;42.816;23.226;2022-09-09T05:31:01;31.73;;;18.83;;
55314;SDS011;41619;42.816;23.226;2022-09-09T05:33:29;28.30;;;17.48;;
55314;SDS011;41619;42.816;23.226;2022-09-09T05:35:57;27.33;;;16.02;;
55314;SDS011;41619;42.816;23.226;2022-09-09T05:38:23;18.60;;;15.80;;
55314;SDS011;41619;42.816;23.226;2022-09-09T05:40:50;30.00;;;16.05;;
55314;SDS011;41619;42.816;23.226;2022-09-09T05:43:17;18.70;;;15.05;;
55314;SDS011;41619;42.816;23.226;2022-09-09T05:45:43;18.83;;;15.48;;
55314;SDS011;41619;42.816;23.226;2022-09-09T05:48:08;19.48;;;14.95;;
55314;SDS011;41619;42.816;23.226;2022-09-09T05:50:34;19.15;;;14.45;;
55314;SDS011;41619;42.816;23.226;2022-09-09T05:52:59;22.90;;;14.40;;
55314;SDS011;41619;42.816;23.226;2022-09-09T05:55:25;27.38;;;14.90;;
55314;SDS011;41619;42.816;23.226;2022-09-09T05:57:50;21.65;;;13.65;;
55314;SDS011;41619;42.816;23.226;2022-09-09T06:00:16;28.55;;;13.65;;
55314;SDS011;41619;42.816;23.226;2022-09-09T06:02:42;35.58;;;13.88;;
55314;SDS011;41619;42.816;23.226;2022-09-09T06:05:08;28.70;;;13.38;;
55314;SDS011;41619;42.816;23.226;2022-09-09T06:07:35;21.63;;;13.35;;
55314;SDS011;41619;42.816;23.226;2022-09-09T06:10:01;27.98;;;12.93;;
55314;SDS011;41619;42.816;23.226;2022-09-09T06:12:26;23.38;;;12.85;;
55314;SDS011;41619;42.816;23.226;2022-09-09T06:14:52;16.55;;;11.60;;
55314;SDS011;41619;42.816;23.226;2022-09-09T06:17:17;15.88;;;10.82;;
55314;SDS011;41619;42.816;23.226;2022-09-09T06:19:42;17.42;;;9.35;;
55314;SDS011;41619;42.816;23.226;2022-09-09T06:22:08;18.15;;;9.80;;
55314;SDS011;41619;42.816;23.226;2022-09-09T06:24:37;9.57;;;7.93;;
55314;SDS011;41619;42.816;23.226;2022-09-09T06:27:03;13.77;;;8.15;;
55314;SDS011;41619;42.816;23.226;2022-09-09T06:29:28;11.45;;;7.78;;
55314;SDS011;41619;42.816;23.226;2022-09-09T06:31:54;9.20;;;7.57;;
55314;SDS011;41619;42.816;23.226;2022-09-09T06:34:19;7.80;;;6.85;;
55314;SDS011;41619;42.816;23.226;2022-09-09T06:36:45;11.02;;;7.10;;
55314;SDS011;41619;42.816;23.226;2022-09-09T06:39:11;11.35;;;6.20;;
55314;SDS011;41619;42.816;23.226;2022-09-09T06:41:36;21.98;;;6.60;;
55314;SDS011;41619;42.816;23.226;2022-09-09T06:44:03;11.73;;;6.57;;
55314;SDS011;41619;42.816;23.226;2022-09-09T06:46:29;9.85;;;5.43;;
55314;SDS011;41619;42.816;23.226;2022-09-09T06:48:57;9.27;;;5.68;;
55314;SDS011;41619;42.816;23.226;2022-09-09T06:51:28;6.70;;;5.45;;
55314;SDS011;41619;42.816;23.226;2022-09-09T06:53:56;7.75;;;5.50;;
55314;SDS011;41619;42.816;23.226;2022-09-09T06:56:24;8.90;;;5.97;;
55314;SDS011;41619;42.816;23.226;2022-09-09T06:58:50;11.25;;;6.68;;
55314;SDS011;41619;42.816;23.226;2022-09-09T07:01:27;7.35;;;5.60;;
55314;SDS011;41619;42.816;23.226;2022-09-09T07:06:28;13.68;;;5.63;;
55314;SDS011;41619;42.816;23.226;2022-09-09T07:08:58;11.20;;;5.60;;
55314;SDS011;41619;42.816;23.226;2022-09-09T07:11:27;9.20;;;5.25;;
55314;SDS011;41619;42.816;23.226;2022-09-09T07:13:53;8.13;;;4.90;;
55314;SDS011;41619;42.816;23.226;2022-09-09T07:16:20;7.72;;;5.30;;
55314;SDS011;41619;42.816;23.226;2022-09-09T07:18:50;8.60;;;4.53;;
55314;SDS011;41619;42.816;23.226;2022-09-09T07:21:17;12.23;;;5.30;;
55314;SDS011;41619;42.816;23.226;2022-09-09T07:23:44;14.43;;;4.70;;
55314;SDS011;41619;42.816;23.226;2022-09-09T07:26:10;9.60;;;4.70;;
55314;SDS011;41619;42.816;23.226;2022-09-09T07:28:37;14.32;;;4.40;;
55314;SDS011;41619;42.816;23.226;2022-09-09T07:31:03;14.35;;;5.18;;
55314;SDS011;41619;42.816;23.226;2022-09-09T07:33:30;7.25;;;4.40;;
55314;SDS011;41619;42.816;23.226;2022-09-09T07:36:05;10.20;;;4.63;;
55314;SDS011;41619;42.816;23.226;2022-09-09T07:38:37;7.20;;;4.53;;
55314;SDS011;41619;42.816;23.226;2022-09-09T07:41:04;10.40;;;4.80;;
55314;SDS011;41619;42.816;23.226;2022-09-09T07:43:31;8.98;;;4.45;;
55314;SDS011;41619;42.816;23.226;2022-09-09T07:45:58;10.95;;;4.93;;
55314;SDS011;41619;42.816;23.226;2022-09-09T07:48:25;18.13;;;4.47;;
55314;SDS011;41619;42.816;23.226;2022-09-09T07:50:50;9.38;;;4.95;;
55314;SDS011;41619;42.816;23.226;2022-09-09T07:53:16;13.95;;;5.03;;
55314;SDS011;41619;42.816;23.226;2022-09-09T07:55:41;12.45;;;4.57;;
55314;SDS011;41619;42.816;23.226;2022-09-09T07:58:07;10.18;;;4.45;;
55314;SDS011;41619;42.816;23.226;2022-09-09T08:00:33;12.60;;;4.50;;
55314;SDS011;41619;42.816;23.226;2022-09-09T08:02:58;9.07;;;4.65;;
55314;SDS011;41619;42.816;23.226;2022-09-09T08:05:25;10.15;;;4.70;;
55314;SDS011;41619;42.816;23.226;2022-09-09T08:07:51;10.90;;;4.18;;
55314;SDS011;41619;42.816;23.226;2022-09-09T08:10:16;9.52;;;4.88;;
55314;SDS011;41619;42.816;23.226;2022-09-09T08:12:42;14.70;;;5.30;;
55314;SDS011;41619;42.816;23.226;2022-09-09T08:15:08;14.80;;;5.10;;
55314;SDS011;41619;42.816;23.226;2022-09-09T08:17:33;9.05;;;4.43;;
55314;SDS011;41619;42.816;23.226;2022-09-09T08:19:59;6.30;;;4.60;;
55314;SDS011;41619;42.816;23.226;2022-09-09T08:22:28;9.85;;;4.65;;
55314;SDS011;41619;42.816;23.226;2022-09-09T08:24:54;8.75;;;4.13;;
55314;SDS011;41619;42.816;23.226;2022-09-09T08:27:19;10.43;;;5.13;;
55314;SDS011;41619;42.816;23.226;2022-09-09T08:29:45;11.13;;;5.00;;
55314;SDS011;41619;42.816;23.226;2022-09-09T08:32:10;13.20;;;4.97;;
55314;SDS011;41619;42.816;23.226;2022-09-09T08:34:35;6.43;;;4.72;;
55314;SDS011;41619;42.816;23.226;2022-09-09T08:37:01;15.23;;;5.22;;
55314;SDS011;41619;42.816;23.226;2022-09-09T08:39:26;15.65;;;5.70;;
55314;SDS011;41619;42.816;23.226;2022-09-09T08:50:26;9.85;;;5.53;;
55314;SDS011;41619;42.816;23.226;2022-09-09T08:58:02;7.82;;;5.60;;
55314;SDS011;41619;42.816;23.226;2022-09-09T09:09:28;8.23;;;5.50;;
55314;SDS011;41619;42.816;23.226;2022-09-09T09:12:02;14.82;;;6.68;;
55314;SDS011;41619;42.816;23.226;2022-09-09T09:14:39;11.57;;;5.50;;
55314;SDS011;41619;42.816;23.226;2022-09-09T09:17:06;11.32;;;5.53;;
55314;SDS011;41619;42.816;23.226;2022-09-09T09:19:38;11.93;;;5.22;;
55314;SDS011;41619;42.816;23.226;2022-09-09T09:24:50;13.48;;;5.20;;
55314;SDS011;41619;42.816;23.226;2022-09-09T09:27:32;13.77;;;5.35;;
55314;SDS011;41619;42.816;23.226;2022-09-09T09:30:18;12.18;;;5.60;;
55314;SDS011;41619;42.816;23.226;2022-09-09T09:33:28;12.57;;;5.53;;
55314;SDS011;41619;42.816;23.226;2022-09-09T09:35:40;14.40;;;5.53;;
55314;SDS011;41619;42.816;23.226;2022-09-09T09:38:15;15.63;;;6.03;;
55314;SDS011;41619;42.816;23.226;2022-09-09T09:40:49;11.77;;;6.15;;
55314;SDS011;41619;42.816;23.226;2022-09-09T09:43:24;11.02;;;5.95;;
55314;SDS011;41619;42.816;23.226;2022-09-09T09:45:54;20.42;;;6.32;;
55314;SDS011;41619;42.816;23.226;2022-09-09T09:48:23;18.90;;;7.30;;
55314;SDS011;41619;42.816;23.226;2022-09-09T09:50:53;24.70;;;7.20;;
55314;SDS011;41619;42.816;23.226;2022-09-09T09:53:21;11.15;;;6.35;;
55314;SDS011;41619;42.816;23.226;2022-09-09T09:55:59;13.88;;;6.75;;
55314;SDS011;41619;42.816;23.226;2022-09-09T09:58:26;12.30;;;6.40;;
55314;SDS011;41619;42.816;23.226;2022-09-09T10:00:57;10.88;;;6.47;;
55314;SDS011;41619;42.816;23.226;2022-09-09T10:05:55;11.65;;;6.32;;
55314;SDS011;41619;42.816;23.226;2022-09-09T10:11:02;12.23;;;6.82;;
55314;SDS011;41619;42.816;23.226;2022-09-09T10:13:52;16.45;;;6.55;;
55314;SDS011;41619;42.816;23.226;2022-09-09T10:19:01;14.25;;;7.03;;
55314;SDS011;41619;42.816;23.226;2022-09-09T10:21:39;15.80;;;7.10;;
55314;SDS011;41619;42.816;23.226;2022-09-09T10:26:55;11.88;;;6.90;;
55314;SDS011;41619;42.816;23.226;2022-09-09T10:35:01;16.02;;;7.85;;
55314;SDS011;41619;42.816;23.226;2022-09-09T10:43:07;14.98;;;7.82;;
55314;SDS011;41619;42.816;23.226;2022-09-09T10:45:45;16.40;;;7.78;;
55314;SDS011;41619;42.816;23.226;2022-09-09T10:48:30;17.42;;;7.72;;
55314;SDS011;41619;42.816;23.226;2022-09-09T10:53:46;13.35;;;7.70;;
55314;SDS011;41619;42.816;23.226;2022-09-09T10:56:26;13.73;;;7.65;;
55314;SDS011;41619;42.816;23.226;2022-09-09T10:58:59;16.63;;;7.65;;
55314;SDS011;41619;42.816;23.226;2022-09-09T11:01:31;15.43;;;8.13;;
55314;SDS011;41619;42.816;23.226;2022-09-09T11:04:09;12.63;;;7.78;;
55314;SDS011;41619;42.816;23.226;2022-09-09T11:06:39;13.88;;;7.90;;
55314;SDS011;41619;42.816;23.226;2022-09-09T11:09:14;11.40;;;7.93;;
55314;SDS011;41619;42.816;23.226;2022-09-09T11:11:49;13.32;;;8.00;;
55314;SDS011;41619;42.816;23.226;2022-09-09T11:17:23;11.38;;;7.43;;
55314;SDS011;41619;42.816;23.226;2022-09-09T11:19:55;13.18;;;8.57;;
55314;SDS011;41619;42.816;23.226;2022-09-09T11:25:05;22.58;;;8.57;;
55314;SDS011;41619;42.816;23.226;2022-09-09T11:30:22;16.20;;;8.27;;
55314;SDS011;41619;42.816;23.226;2022-09-09T11:38:25;11.38;;;7.88;;
55314;SDS011;41619;42.816;23.226;2022-09-09T11:40:54;15.93;;;8.15;;
55314;SDS011;41619;42.816;23.226;2022-09-09T11:43:25;14.32;;;7.25;;
55314;SDS011;41619;42.816;23.226;2022-09-09T11:45:55;12.55;;;8.27;;
55314;SDS011;41619;42.816;23.226;2022-09-09T11:48:32;13.73;;;9.00;;
55314;SDS011;41619;42.816;23.226;2022-09-09T11:51:04;14.82;;;8.43;;
55314;SDS011;41619;42.816;23.226;2022-09-09T11:53:33;16.55;;;8.95;;
55314;SDS011;41619;42.816;23.226;2022-09-09T11:56:22;12.90;;;9.10;;
55314;SDS011;41619;42.816;23.226;2022-09-09T11:58:55;15.38;;;8.45;;
55314;SDS011;41619;42.816;23.226;2022-09-09T12:01:26;20.23;;;8.93;;
55314;SDS011;41619;42.816;23.226;2022-09-09T12:07:21;20.17;;;9.63;;
55314;SDS011;41619;42.816;23.226;2022-09-09T12:09:47;19.40;;;9.32;;
55314;SDS011;41619;42.816;23.226;2022-09-09T12:12:30;22.38;;;9.30;;
55314;SDS011;41619;42.816;23.226;2022-09-09T12:17:45;14.90;;;9.77;;
55314;SDS011;41619;42.816;23.226;2022-09-09T12:31:23;24.15;;;8.45;;
55314;SDS011;41619;42.816;23.226;2022-09-09T12:34:02;14.68;;;8.75;;
55314;SDS011;41619;42.816;23.226;2022-09-09T12:39:09;21.50;;;8.55;;
55314;SDS011;41619;42.816;23.226;2022-09-09T12:41:55;13.30;;;8.23;;
55314;SDS011;41619;42.816;23.226;2022-09-09T12:44:23;25.70;;;8.75;;
55314;SDS011;41619;42.816;23.226;2022-09-09T12:46:50;15.43;;;7.85;;
55314;SDS011;41619;42.816;23.226;2022-09-09T12:52:03;26.55;;;10.00;;
55314;SDS011;41619;42.816;23.226;2022-09-09T12:54:32;13.25;;;8.07;;
55314;SDS011;41619;42.816;23.226;2022-09-09T12:56:59;12.43;;;8.02;;
55314;SDS011;41619;42.816;23.226;2022-09-09T12:59:26;14.52;;;7.70;;
55314;SDS011;41619;42.816;23.226;2022-09-09T13:02:00;17.10;;;7.63;;
55314;SDS011;41619;42.816;23.226;2022-09-09T13:04:25;15.35;;;7.28;;
55314;SDS011;41619;42.816;23.226;2022-09-09T13:06:51;13.45;;;7.88;;
55314;SDS011;41619;42.816;23.226;2022-09-09T13:09:25;12.95;;;7.55;;
55314;SDS011;41619;42.816;23.226;2022-09-09T13:12:01;24.30;;;7.93;;
55314;SDS011;41619;42.816;23.226;2022-09-09T13:14:32;16.48;;;8.35;;
55314;SDS011;41619;42.816;23.226;2022-09-09T13:17:03;20.33;;;8.02;;
55314;SDS011;41619;42.816;23.226;2022-09-09T13:19:31;18.00;;;7.97;;
55314;SDS011;41619;42.816;23.226;2022-09-09T13:22:10;22.20;;;7.82;;
55314;SDS011;41619;42.816;23.226;2022-09-09T13:24:44;23.80;;;7.07;;
55314;SDS011;41619;42.816;23.226;2022-09-09T13:27:26;17.35;;;7.15;;
55314;SDS011;41619;42.816;23.226;2022-09-09T13:29:58;10.40;;;6.30;;
55314;SDS011;41619;42.816;23.226;2022-09-09T13:32:30;16.58;;;6.47;;
55314;SDS011;41619;42.816;23.226;2022-09-09T13:34:57;14.10;;;6.90;;
55314;SDS011;41619;42.816;23.226;2022-09-09T13:37:34;18.95;;;7.03;;
55314;SDS011;41619;42.816;23.226;2022-09-09T13:40:02;25.23;;;7.28;;
55314;SDS011;41619;42.816;23.226;2022-09-09T13:42:31;15.68;;;6.20;;
55314;SDS011;41619;42.816;23.226;2022-09-09T13:45:00;19.45;;;6.60;;
55314;SDS011;41619;42.816;23.226;2022-09-09T13:47:33;14.38;;;6.47;;
55314;SDS011;41619;42.816;23.226;2022-09-09T13:52:48;23.58;;;7.95;;
55314;SDS011;41619;42.816;23.226;2022-09-09T13:55:18;24.40;;;7.85;;
55314;SDS011;41619;42.816;23.226;2022-09-09T13:58:04;18.90;;;7.18;;
55314;SDS011;41619;42.816;23.226;2022-09-09T14:00:31;10.35;;;6.65;;
55314;SDS011;41619;42.816;23.226;2022-09-09T14:02:58;13.80;;;6.10;;
55314;SDS011;41619;42.816;23.226;2022-09-09T14:05:27;14.30;;;6.32;;
55314;SDS011;41619;42.816;23.226;2022-09-09T14:07:53;18.50;;;6.40;;
55314;SDS011;41619;42.816;23.226;2022-09-09T14:10:18;16.40;;;6.75;;
55314;SDS011;41619;42.816;23.226;2022-09-09T14:12:44;13.05;;;6.10;;
55314;SDS011;41619;42.816;23.226;2022-09-09T14:15:10;16.80;;;6.70;;
55314;SDS011;41619;42.816;23.226;2022-09-09T14:17:36;16.40;;;6.18;;
55314;SDS011;41619;42.816;23.226;2022-09-09T14:20:03;16.35;;;6.65;;
55314;SDS011;41619;42.816;23.226;2022-09-09T14:22:34;19.52;;;6.47;;
55314;SDS011;41619;42.816;23.226;2022-09-09T14:25:00;16.80;;;6.88;;
55314;SDS011;41619;42.816;23.226;2022-09-09T14:27:26;13.18;;;6.30;;
55314;SDS011;41619;42.816;23.226;2022-09-09T14:29:52;15.55;;;6.10;;
55314;SDS011;41619;42.816;23.226;2022-09-09T14:32:18;14.75;;;5.78;;
55314;SDS011;41619;42.816;23.226;2022-09-09T14:34:43;12.88;;;6.03;;
55314;SDS011;41619;42.816;23.226;2022-09-09T14:37:09;14.88;;;6.30;;
55314;SDS011;41619;42.816;23.226;2022-09-09T14:39:34;18.05;;;6.93;;
55314;SDS011;41619;42.816;23.226;2022-09-09T14:41:59;17.83;;;6.97;;
55314;SDS011;41619;42.816;23.226;2022-09-09T14:44:25;14.50;;;6.32;;
55314;SDS011;41619;42.816;23.226;2022-09-09T14:46:51;16.30;;;6.35;;
55314;SDS011;41619;42.816;23.226;2022-09-09T14:49:16;19.90;;;7.68;;
55314;SDS011;41619;42.816;23.226;2022-09-09T14:51:41;29.00;;;8.30;;
55314;SDS011;41619;42.816;23.226;2022-09-09T14:54:07;17.25;;;7.55;;
55314;SDS011;41619;42.816;23.226;2022-09-09T14:56:32;10.10;;;5.88;;
55314;SDS011;41619;42.816;23.226;2022-09-09T14:59:01;16.17;;;6.20;;
55314;SDS011;41619;42.816;23.226;2022-09-09T15:01:27;14.80;;;7.55;;
55314;SDS011;41619;42.816;23.226;2022-09-09T15:04:04;19.52;;;6.65;;
55314;SDS011;41619;42.816;23.226;2022-09-09T15:06:31;16.23;;;6.60;;
55314;SDS011;41619;42.816;23.226;2022-09-09T15:08:58;10.68;;;6.57;;
55314;SDS011;41619;42.816;23.226;2022-09-09T15:11:29;13.00;;;6.10;;
55314;SDS011;41619;42.816;23.226;2022-09-09T15:13:57;19.10;;;8.40;;
55314;SDS011;41619;42.816;23.226;2022-09-09T15:16:24;17.83;;;7.10;;
55314;SDS011;41619;42.816;23.226;2022-09-09T15:21:20;14.00;;;6.70;;
55314;SDS011;41619;42.816;23.226;2022-09-09T15:23:47;16.60;;;7.55;;
55314;SDS011;41619;42.816;23.226;2022-09-09T15:26:13;15.70;;;7.22;;
55314;SDS011;41619;42.816;23.226;2022-09-09T15:28:40;12.23;;;6.93;;
55314;SDS011;41619;42.816;23.226;2022-09-09T15:31:18;14.57;;;7.47;;
55314;SDS011;41619;42.816;23.226;2022-09-09T15:33:49;20.02;;;8.65;;
55314;SDS011;41619;42.816;23.226;2022-09-09T15:38:45;11.73;;;7.00;;
55314;SDS011;41619;42.816;23.226;2022-09-09T15:41:11;14.75;;;7.13;;
55314;SDS011;41619;42.816;23.226;2022-09-09T15:43:42;19.23;;;6.88;;
55314;SDS011;41619;42.816;23.226;2022-09-09T15:51:44;18.02;;;7.32;;
55314;SDS011;41619;42.816;23.226;2022-09-09T15:54:12;11.90;;;7.07;;
55314;SDS011;41619;42.816;23.226;2022-09-09T15:56:40;22.63;;;8.15;;
55314;SDS011;41619;42.816;23.226;2022-09-09T15:59:06;13.52;;;7.40;;
55314;SDS011;41619;42.816;23.226;2022-09-09T16:01:32;14.63;;;7.05;;
55314;SDS011;41619;42.816;23.226;2022-09-09T16:03:58;19.90;;;7.30;;
55314;SDS011;41619;42.816;23.226;2022-09-09T16:06:25;24.95;;;7.97;;
55314;SDS011;41619;42.816;23.226;2022-09-09T16:08:53;18.58;;;7.65;;
55314;SDS011;41619;42.816;23.226;2022-09-09T16:11:27;18.15;;;7.35;;
55314;SDS011;41619;42.816;23.226;2022-09-09T16:13:55;14.40;;;7.88;;
55314;SDS011;41619;42.816;23.226;2022-09-09T16:16:22;21.20;;;7.80;;
55314;SDS011;41619;42.816;23.226;2022-09-09T16:18:51;19.42;;;8.07;;
55314;SDS011;41619;42.816;23.226;2022-09-09T16:21:32;24.45;;;7.85;;
55314;SDS011;41619;42.816;23.226;2022-09-09T16:24:01;22.50;;;8.80;;
55314;SDS011;41619;42.816;23.226;2022-09-09T16:26:29;22.48;;;8.35;;
55314;SDS011;41619;42.816;23.226;2022-09-09T16:31:26;48.25;;;20.13;;
55314;SDS011;41619;42.816;23.226;2022-09-09T16:33:52;37.75;;;16.52;;
55314;SDS011;41619;42.816;23.226;2022-09-09T16:36:20;20.50;;;10.02;;
55314;SDS011;41619;42.816;23.226;2022-09-09T16:38:47;25.58;;;8.38;;
55314;SDS011;41619;42.816;23.226;2022-09-09T16:41:16;21.02;;;8.45;;
55314;SDS011;41619;42.816;23.226;2022-09-09T16:43:42;24.25;;;8.48;;
55314;SDS011;41619;42.816;23.226;2022-09-09T16:46:17;23.48;;;8.85;;
55314;SDS011;41619;42.816;23.226;2022-09-09T16:48:44;18.80;;;8.05;;
55314;SDS011;41619;42.816;23.226;2022-09-09T16:51:14;16.23;;;8.93;;
55314;SDS011;41619;42.816;23.226;2022-09-09T16:53:50;18.67;;;8.87;;
55314;SDS011;41619;42.816;23.226;2022-09-09T16:56:17;20.98;;;8.93;;
55314;SDS011;41619;42.816;23.226;2022-09-09T16:58:49;25.98;;;9.50;;
55314;SDS011;41619;42.816;23.226;2022-09-09T17:01:16;21.77;;;9.52;;
55314;SDS011;41619;42.816;23.226;2022-09-09T17:03:41;18.25;;;9.32;;
55314;SDS011;41619;42.816;23.226;2022-09-09T17:06:11;20.20;;;8.68;;
55314;SDS011;41619;42.816;23.226;2022-09-09T17:08:38;28.88;;;10.32;;